createdAt,value
2023-03-04T00:00:46.528Z,32.83
2023-03-04T00:03:16.128Z,31.30
2023-03-04T00:05:45.173Z,35.33
2023-03-04T00:08:13.803Z,34.70
2023-03-04T00:10:44.722Z,30.17
2023-03-04T00:13:14.165Z,22.43
2023-03-04T00:15:42.855Z,32.20
2023-03-04T00:18:12.883Z,35.23
2023-03-04T00:20:41.471Z,38.77
2023-03-04T00:23:10.190Z,38.53
2023-03-04T00:25:38.681Z,29.63
2023-03-04T00:28:11.815Z,39.50
2023-03-04T00:30:40.150Z,27.87
2023-03-04T00:33:09.036Z,25.53
2023-03-04T00:35:37.532Z,22.83
2023-03-04T00:38:07.254Z,23.37
2023-03-04T00:40:36.054Z,35.40
2023-03-04T00:43:04.511Z,41.77
2023-03-04T00:45:34.637Z,32.40
2023-03-04T00:48:03.126Z,30.20
2023-03-04T00:50:31.916Z,32.43
2023-03-04T00:53:00.479Z,30.10
2023-03-04T00:55:29.373Z,29.67
2023-03-04T00:57:58.166Z,25.27
2023-03-04T01:00:26.725Z,26.70
2023-03-04T01:02:56.752Z,33.03
2023-03-04T01:05:25.343Z,40.63
2023-03-04T01:07:53.836Z,27.63
2023-03-04T01:10:22.749Z,34.10
2023-03-04T01:12:51.303Z,31.70
2023-03-04T01:15:19.982Z,23.37
2023-03-04T01:17:48.340Z,32.03
2023-03-04T01:20:19.251Z,37.20
2023-03-04T01:22:47.829Z,39.17
2023-03-04T01:25:16.423Z,40.57
2023-03-04T01:27:44.851Z,31.37
2023-03-04T01:30:14.002Z,31.07
2023-03-04T01:32:42.544Z,31.10
2023-03-04T01:35:11.378Z,30.53
2023-03-04T01:37:41.340Z,31.00
2023-03-04T01:40:10.804Z,26.90
2023-03-04T01:42:39.172Z,39.57
2023-03-04T01:45:08.718Z,31.43
2023-03-04T01:47:37.573Z,27.43
2023-03-04T01:50:09.934Z,40.10
2023-03-04T01:52:39.336Z,32.50
2023-03-04T01:55:13.950Z,33.93
2023-03-04T01:57:42.695Z,26.77
2023-03-04T02:00:20.679Z,26.73
2023-03-04T02:02:50.305Z,29.87
2023-03-04T02:05:19.369Z,31.93
2023-03-04T02:07:49.282Z,20.33
2023-03-04T02:10:19.283Z,34.80
2023-03-04T02:12:47.901Z,36.57
2023-03-04T02:15:16.389Z,27.70
2023-03-04T02:17:44.881Z,29.50
2023-03-04T02:20:17.493Z,37.03
2023-03-04T02:22:48.978Z,30.80
2023-03-04T02:25:20.671Z,22.60
2023-03-04T02:27:52.901Z,28.73
2023-03-04T02:30:23.201Z,25.83
2023-03-04T02:32:52.021Z,30.80
2023-03-04T02:35:21.013Z,21.67
2023-03-04T02:37:49.735Z,25.53
2023-03-04T02:40:21.404Z,41.07
2023-03-04T02:42:51.335Z,32.70
2023-03-04T02:45:37.470Z,29.97
2023-03-04T02:48:06.469Z,31.90
2023-03-04T02:50:37.250Z,31.00
2023-03-04T02:53:12.821Z,36.17
2023-03-04T02:55:42.728Z,26.70
2023-03-04T02:58:13.420Z,23.73
2023-03-04T03:00:42.080Z,31.00
2023-03-04T03:03:10.590Z,30.93
2023-03-04T03:05:39.549Z,31.37
2023-03-04T03:08:08.262Z,26.43
2023-03-04T03:10:36.630Z,23.83
2023-03-04T03:13:04.983Z,32.77
2023-03-04T03:15:34.788Z,34.17
2023-03-04T03:18:03.347Z,32.50
2023-03-04T03:20:32.198Z,26.23
2023-03-04T03:23:00.445Z,23.57
2023-03-04T03:25:30.191Z,22.67
2023-03-04T03:27:59.058Z,28.60
2023-03-04T03:30:27.443Z,25.43
2023-03-04T03:32:57.573Z,29.77
2023-03-04T03:35:26.084Z,32.37
2023-03-04T03:37:55.043Z,32.40
2023-03-04T03:40:23.325Z,26.50
2023-03-04T03:42:52.570Z,33.00
2023-03-04T03:45:21.258Z,29.13
2023-03-04T03:47:49.794Z,26.67
2023-03-04T03:50:21.081Z,23.30
2023-03-04T03:52:49.395Z,20.67
2023-03-04T03:55:17.981Z,37.30
2023-03-04T03:57:46.397Z,21.47
2023-03-04T04:00:16.246Z,26.20
2023-03-04T04:02:44.767Z,25.27
2023-03-04T04:05:14.486Z,37.70
2023-03-04T04:07:44.612Z,26.17
2023-03-04T04:10:13.414Z,27.00
2023-03-04T04:12:41.908Z,32.03
2023-03-04T04:15:12.808Z,30.40
2023-03-04T04:17:41.258Z,21.20
2023-03-04T04:20:10.474Z,24.77
2023-03-04T04:22:38.999Z,28.80
2023-03-04T04:25:10.819Z,27.83
2023-03-04T04:27:39.531Z,28.70
2023-03-04T04:30:08.661Z,26.33
2023-03-04T04:32:37.182Z,30.33
2023-03-04T04:35:05.661Z,21.30
2023-03-04T04:37:34.599Z,30.17
2023-03-04T04:40:03.667Z,34.67
2023-03-04T04:42:34.073Z,26.00
2023-03-04T04:45:02.650Z,25.20
2023-03-04T04:47:31.498Z,24.80
2023-03-04T04:50:24.885Z,27.13
2023-03-04T04:52:53.608Z,30.47
2023-03-04T04:55:22.488Z,26.63
2023-03-04T04:57:52.608Z,20.10
2023-03-04T05:00:21.330Z,19.47
2023-03-04T05:02:51.193Z,22.83
2023-03-04T05:05:19.900Z,35.50
2023-03-04T05:07:48.460Z,25.90
2023-03-04T05:10:18.083Z,24.27
2023-03-04T05:12:46.645Z,35.60
2023-03-04T05:15:16.806Z,21.33
2023-03-04T05:17:45.365Z,21.67
2023-03-04T05:20:14.466Z,27.83
2023-03-04T05:22:43.053Z,28.57
2023-03-04T05:25:12.419Z,23.17
2023-03-04T05:27:40.822Z,24.97
2023-03-04T05:30:09.961Z,24.70
2023-03-04T05:32:39.972Z,19.60
2023-03-04T05:35:08.908Z,25.17
2023-03-04T05:37:37.276Z,25.97
2023-03-04T05:40:06.346Z,26.87
2023-03-04T05:42:34.958Z,28.90
2023-03-04T05:45:03.523Z,26.97
2023-03-04T05:47:31.943Z,16.87
2023-03-04T05:50:02.510Z,30.67
2023-03-04T05:52:30.988Z,34.90
2023-03-04T05:54:59.730Z,17.60
2023-03-04T05:57:28.245Z,21.63
2023-03-04T05:59:56.581Z,36.87
2023-03-04T06:02:25.722Z,27.77
2023-03-04T06:04:54.155Z,22.90
2023-03-04T06:07:23.927Z,21.10
2023-03-04T06:09:52.237Z,18.67
2023-03-04T06:12:20.989Z,22.57
2023-03-04T06:14:49.674Z,28.53
2023-03-04T06:17:18.553Z,20.40
2023-03-04T06:19:47.264Z,26.53
2023-03-04T06:22:21.983Z,24.20
2023-03-04T06:24:52.469Z,15.43
2023-03-04T06:27:21.091Z,27.70
2023-03-04T06:29:49.826Z,27.90
2023-03-04T06:32:18.492Z,25.23
2023-03-04T06:34:48.011Z,29.77
2023-03-04T06:37:16.740Z,25.73
2023-03-04T06:39:45.165Z,30.10
2023-03-04T06:42:15.185Z,18.23
2023-03-04T06:44:44.253Z,22.80
2023-03-04T06:47:12.962Z,25.63
2023-03-04T06:49:41.543Z,25.40
2023-03-04T06:52:13.305Z,22.60
2023-03-04T06:54:41.880Z,36.87
2023-03-04T06:57:10.833Z,23.93
2023-03-04T06:59:40.883Z,24.90
2023-03-04T07:02:13.051Z,25.63
2023-03-04T07:04:41.811Z,28.43
2023-03-04T07:07:10.271Z,33.97
2023-03-04T07:09:38.735Z,33.10
2023-03-04T07:12:07.730Z,36.00
2023-03-04T07:14:36.480Z,25.83
2023-03-04T07:17:06.282Z,31.23
2023-03-04T07:19:34.689Z,33.83
2023-03-04T07:22:03.036Z,30.80
2023-03-04T07:24:32.194Z,27.03
2023-03-04T07:27:00.596Z,19.83
2023-03-04T07:29:29.257Z,27.63
2023-03-04T07:31:57.651Z,36.13
2023-03-04T07:34:29.896Z,21.97
2023-03-04T07:36:58.332Z,20.63
2023-03-04T07:39:27.295Z,29.73
2023-03-04T07:41:55.908Z,31.40
2023-03-04T07:44:25.085Z,26.90
2023-03-04T07:46:56.191Z,28.97
2023-03-04T07:49:24.856Z,19.43
2023-03-04T07:51:54.843Z,21.87
2023-03-04T07:54:23.209Z,25.90
2023-03-04T07:56:53.899Z,28.57
2023-03-04T07:59:22.377Z,21.20
2023-03-04T08:01:51.136Z,20.83
2023-03-04T08:04:19.550Z,16.70
2023-03-04T08:06:48.893Z,21.30
2023-03-04T08:09:18.883Z,21.60
2023-03-04T08:11:47.217Z,30.13
2023-03-04T08:14:16.131Z,28.60
2023-03-04T08:16:44.754Z,21.57
2023-03-04T08:19:13.104Z,31.23
2023-03-04T08:21:41.931Z,27.73
2023-03-04T08:24:10.463Z,23.27
2023-03-04T08:26:58.477Z,23.10
2023-03-04T08:29:28.359Z,24.40
2023-03-04T08:31:57.380Z,22.13
2023-03-04T08:34:28.878Z,22.63
2023-03-04T08:36:58.510Z,25.77
2023-03-04T08:39:27.220Z,21.30
2023-03-04T08:41:55.631Z,19.07
2023-03-04T08:44:26.714Z,29.03
2023-03-04T08:46:57.178Z,23.00
2023-03-04T08:49:25.658Z,23.63
2023-03-04T08:51:55.749Z,25.33
2023-03-04T08:54:24.170Z,21.27
2023-03-04T08:56:54.086Z,23.33
2023-03-04T08:59:23.222Z,19.43
2023-03-04T09:01:57.723Z,21.70
2023-03-04T09:04:57.602Z,22.33
2023-03-04T09:07:28.014Z,20.50
2023-03-04T09:10:03.896Z,21.07
2023-03-04T09:12:33.681Z,19.83
2023-03-04T09:15:11.244Z,17.90
2023-03-04T09:17:40.925Z,23.60
2023-03-04T09:20:17.351Z,21.67
2023-03-04T09:22:47.262Z,24.43
2023-03-04T09:25:16.478Z,26.10
2023-03-04T09:27:46.271Z,20.83
2023-03-04T09:30:15.124Z,29.03
2023-03-04T09:32:43.776Z,22.90
2023-03-04T09:35:13.357Z,22.10
2023-03-04T09:37:49.772Z,22.10
2023-03-04T09:40:21.880Z,23.97
2023-03-04T09:42:58.960Z,19.63
2023-03-04T09:45:30.679Z,17.97
2023-03-04T09:48:00.124Z,21.90
2023-03-04T09:50:54.484Z,23.43
2023-03-04T09:53:36.930Z,17.97
2023-03-04T09:56:08.165Z,19.60
2023-03-04T09:58:42.005Z,17.47
2023-03-04T10:01:22.169Z,20.00
2023-03-04T10:03:53.456Z,23.30
2023-03-04T10:06:30.112Z,31.07
2023-03-04T10:09:09.376Z,18.43
2023-03-04T10:11:41.021Z,32.17
2023-03-04T10:14:21.553Z,25.90
2023-03-04T10:16:54.109Z,34.63
2023-03-04T10:19:29.399Z,27.87
2023-03-04T10:21:57.885Z,23.83
2023-03-04T10:24:34.317Z,17.83
2023-03-04T10:27:13.387Z,44.77
2023-03-04T10:29:42.152Z,19.77
2023-03-04T10:32:15.193Z,34.73
2023-03-04T10:34:43.752Z,20.50
2023-03-04T10:37:12.354Z,22.30
2023-03-04T10:39:41.540Z,23.63
2023-03-04T10:42:26.856Z,15.40
2023-03-04T10:44:56.073Z,14.07
2023-03-04T10:47:27.036Z,21.00
2023-03-04T10:49:56.337Z,16.20
2023-03-04T10:52:34.418Z,39.17
2023-03-04T10:55:04.470Z,19.70
2023-03-04T10:57:37.524Z,16.17
2023-03-04T11:00:27.032Z,23.10
2023-03-04T11:02:55.376Z,21.37
2023-03-04T11:05:25.241Z,24.23
2023-03-04T11:07:57.100Z,19.13
2023-03-04T11:10:27.799Z,26.20
2023-03-04T11:13:01.844Z,20.27
2023-03-04T11:15:31.508Z,27.20
2023-03-04T11:18:02.840Z,20.87
2023-03-04T11:24:37.387Z,23.00
2023-03-04T11:27:07.526Z,22.20
2023-03-04T11:29:40.098Z,24.63
2023-03-04T11:32:12.174Z,24.07
2023-03-04T11:34:42.976Z,18.17
2023-03-04T11:37:16.590Z,17.77
2023-03-04T11:39:49.768Z,18.93
2023-03-04T11:42:23.400Z,15.67
2023-03-04T11:44:53.729Z,16.60
2023-03-04T11:47:27.173Z,23.40
2023-03-04T11:50:13.299Z,24.63
2023-03-04T11:52:52.226Z,19.57
2023-03-04T11:55:28.008Z,26.30
2023-03-04T11:58:02.356Z,17.73
2023-03-04T12:00:39.181Z,19.87
2023-03-04T12:03:24.321Z,21.23
2023-03-04T12:05:56.183Z,21.67
2023-03-04T12:08:37.822Z,18.47
2023-03-04T12:11:08.491Z,21.70
2023-03-04T12:13:58.129Z,20.43
2023-03-04T12:16:42.112Z,18.50
2023-03-04T12:19:15.149Z,23.20
2023-03-04T12:21:58.407Z,23.90
2023-03-04T12:24:36.495Z,19.90
2023-03-04T12:27:12.218Z,21.30
2023-03-04T12:29:44.518Z,18.50
2023-03-04T12:32:18.698Z,18.83
2023-03-04T12:34:57.461Z,24.07
2023-03-04T12:37:40.468Z,18.20
2023-03-04T12:40:33.109Z,20.53
2023-03-04T12:43:09.788Z,9.27
2023-03-04T12:45:42.820Z,16.03
2023-03-04T12:48:25.783Z,14.63
2023-03-04T12:51:05.240Z,16.87
2023-03-04T12:53:45.192Z,11.67
2023-03-04T12:56:24.383Z,12.10
2023-03-04T12:59:02.251Z,18.07
2023-03-04T13:01:43.043Z,18.57
2023-03-04T13:04:24.089Z,16.50
2023-03-04T13:07:02.859Z,12.40
2023-03-04T13:09:34.645Z,19.13
2023-03-04T13:12:08.119Z,16.53
2023-03-04T13:14:36.731Z,12.13
2023-03-04T13:17:31.491Z,16.57
2023-03-04T13:20:13.811Z,12.00
2023-03-04T13:22:50.497Z,13.93
2023-03-04T13:25:32.707Z,18.17
2023-03-04T13:28:32.623Z,15.67
2023-03-04T13:31:10.712Z,21.37
2023-03-04T13:34:01.685Z,21.50
2023-03-04T13:36:36.243Z,23.37
2023-03-04T13:39:06.760Z,10.80
2023-03-04T13:41:48.110Z,12.13
2023-03-04T13:44:40.618Z,15.70
2023-03-04T13:47:19.763Z,16.37
2023-03-04T13:49:48.549Z,14.63
2023-03-04T13:52:39.947Z,15.53
2023-03-04T13:55:27.112Z,18.33
2023-03-04T13:58:01.537Z,19.47
2023-03-04T14:00:30.644Z,15.80
2023-03-04T14:02:59.267Z,14.77
2023-03-04T14:05:28.137Z,20.23
2023-03-04T14:07:56.664Z,14.50
2023-03-04T14:10:26.893Z,17.57
2023-03-04T14:12:58.652Z,12.27
2023-03-04T14:15:35.282Z,13.57
2023-03-04T14:18:12.286Z,11.87
2023-03-04T14:20:43.032Z,16.93
2023-03-04T14:23:31.226Z,15.73
2023-03-04T14:26:13.272Z,10.40
2023-03-04T14:28:54.348Z,17.97
2023-03-04T14:31:23.783Z,23.77
2023-03-04T14:33:54.362Z,27.77
2023-03-04T14:36:24.808Z,25.40
2023-03-04T14:39:00.582Z,12.10
2023-03-04T14:41:30.830Z,13.03
2023-03-04T14:44:05.366Z,15.70
2023-03-04T14:46:36.810Z,14.10
2023-03-04T14:49:05.597Z,17.03
2023-03-04T14:51:41.957Z,19.80
2023-03-04T14:54:26.005Z,10.97
2023-03-04T14:56:54.654Z,13.93
2023-03-04T14:59:33.534Z,12.77
2023-03-04T15:02:33.649Z,13.60
2023-03-04T15:05:05.157Z,21.27
2023-03-04T15:07:37.481Z,16.00
2023-03-04T15:10:07.415Z,12.63
2023-03-04T15:12:37.473Z,11.80
2023-03-04T15:15:29.733Z,12.87
2023-03-04T15:18:03.980Z,12.47
2023-03-04T15:20:38.805Z,12.63
2023-03-04T15:23:21.857Z,15.13
2023-03-04T15:25:59.889Z,13.40
2023-03-04T15:28:29.595Z,12.97
2023-03-04T15:31:00.615Z,14.33
2023-03-04T15:33:29.374Z,13.90
2023-03-04T15:36:08.165Z,10.37
2023-03-04T15:38:42.694Z,10.47
2023-03-04T15:41:12.816Z,11.43
2023-03-04T15:43:41.702Z,11.77
2023-03-04T15:46:12.599Z,8.97
2023-03-04T15:48:47.127Z,12.33
2023-03-04T15:51:17.758Z,10.53
2023-03-04T15:53:48.335Z,15.90
2023-03-04T15:56:18.496Z,11.07
2023-03-04T15:58:55.820Z,11.77
2023-03-04T16:01:33.144Z,11.57
2023-03-04T16:04:01.710Z,9.47
2023-03-04T16:06:31.809Z,16.93
2023-03-04T16:09:00.643Z,10.83
2023-03-04T16:11:33.275Z,8.40
2023-03-04T16:14:01.840Z,12.30
2023-03-04T16:16:31.804Z,11.67
2023-03-04T16:19:00.402Z,11.23
2023-03-04T16:21:28.832Z,12.20
2023-03-04T16:23:57.482Z,18.60
2023-03-04T16:26:26.587Z,9.50
2023-03-04T16:29:03.388Z,16.20
2023-03-04T16:31:46.687Z,15.80
2023-03-04T16:34:22.668Z,7.90
2023-03-04T16:36:51.292Z,8.63
2023-03-04T16:39:22.075Z,11.93
2023-03-04T16:41:51.006Z,11.67
2023-03-04T16:44:29.714Z,11.00
2023-03-04T16:47:07.135Z,13.70
2023-03-04T16:49:36.324Z,10.10
2023-03-04T16:52:07.047Z,9.00
2023-03-04T16:54:37.636Z,13.10
2023-03-04T16:57:17.570Z,9.50
2023-03-04T16:59:50.894Z,9.37
2023-03-04T17:02:21.619Z,8.50
2023-03-04T17:04:53.373Z,14.33
2023-03-04T17:07:22.481Z,9.17
2023-03-04T17:09:53.913Z,12.47
2023-03-04T17:12:22.505Z,10.10
2023-03-04T17:14:51.530Z,12.30
2023-03-04T17:17:21.761Z,17.80
2023-03-04T17:19:50.437Z,13.80
2023-03-04T17:22:18.988Z,9.90
2023-03-04T17:24:47.590Z,13.13
2023-03-04T17:27:23.620Z,23.30
2023-03-04T17:29:53.366Z,10.70
2023-03-04T17:32:23.362Z,16.90
2023-03-04T17:34:51.790Z,16.13
2023-03-04T17:37:27.404Z,9.90
2023-03-04T17:40:08.664Z,8.40
2023-03-04T17:42:37.173Z,17.83
2023-03-04T17:45:06.207Z,8.00
2023-03-04T17:47:36.968Z,20.43
2023-03-04T17:50:13.923Z,10.50
2023-03-04T17:52:42.618Z,7.67
2023-03-04T17:55:12.047Z,13.90
2023-03-04T17:57:40.694Z,15.77
2023-03-04T18:00:17.024Z,19.63
2023-03-04T18:02:47.006Z,12.90
2023-03-04T18:05:17.072Z,17.60
2023-03-04T18:07:57.925Z,17.63
2023-03-04T18:10:26.590Z,11.17
2023-03-04T18:13:02.671Z,12.63
2023-03-04T18:15:31.297Z,17.90
2023-03-04T18:18:01.480Z,7.77
2023-03-04T18:20:30.825Z,16.10
2023-03-04T18:23:06.086Z,10.17
2023-03-04T18:25:34.766Z,12.67
2023-03-04T18:28:04.287Z,10.40
2023-03-04T18:30:33.542Z,8.33
2023-03-04T18:33:11.326Z,11.63
2023-03-04T18:35:51.028Z,11.47
2023-03-04T18:38:19.599Z,10.60
2023-03-04T18:40:48.424Z,22.70
2023-03-04T18:43:16.873Z,9.40
2023-03-04T18:45:53.919Z,15.00
2023-03-04T18:48:24.159Z,10.60
2023-03-04T18:50:53.732Z,10.30
2023-03-04T18:53:22.382Z,10.63
2023-03-04T18:56:00.397Z,9.77
2023-03-04T18:58:37.254Z,11.53
2023-03-04T19:01:07.547Z,14.30
2023-03-04T19:03:40.156Z,15.90
2023-03-04T19:06:10.135Z,11.50
2023-03-04T19:08:44.639Z,9.97
2023-03-04T19:11:13.848Z,9.03
2023-03-04T19:13:42.892Z,9.30
2023-03-04T19:16:11.494Z,12.57
2023-03-04T19:18:49.884Z,11.10
2023-03-04T19:21:19.681Z,17.73
2023-03-04T19:23:48.412Z,12.13
2023-03-04T19:26:19.327Z,9.10
2023-03-04T19:28:50.096Z,11.40
2023-03-04T19:31:19.546Z,12.77
2023-03-04T19:33:52.820Z,15.20
2023-03-04T19:36:21.222Z,11.03
2023-03-04T19:38:56.935Z,12.00
2023-03-04T19:41:28.402Z,12.83
2023-03-04T19:43:57.447Z,14.70
2023-03-04T19:46:28.467Z,8.83
2023-03-04T19:49:00.323Z,16.03
2023-03-04T19:51:35.047Z,14.23
2023-03-04T19:54:05.077Z,14.53
2023-03-04T19:56:36.611Z,15.30
2023-03-04T19:59:07.562Z,12.57
2023-03-04T20:01:45.606Z,13.50
2023-03-04T20:04:24.021Z,11.87
2023-03-04T20:06:53.986Z,11.63
2023-03-04T20:09:22.827Z,20.17
2023-03-04T20:11:58.131Z,8.57
2023-03-04T20:14:27.331Z,8.50
2023-03-04T20:16:56.041Z,10.87
2023-03-04T20:19:26.067Z,17.00
2023-03-04T20:21:54.698Z,11.93
2023-03-04T20:24:23.492Z,9.67
2023-03-04T20:26:52.570Z,14.73
2023-03-04T20:29:21.562Z,12.23
2023-03-04T20:31:50.297Z,9.77
2023-03-04T20:34:18.923Z,11.50
2023-03-04T20:36:48.911Z,13.37
2023-03-04T20:39:28.730Z,11.97
2023-03-04T20:41:58.278Z,15.33
2023-03-04T20:44:27.145Z,15.17
2023-03-04T20:46:56.315Z,16.13
2023-03-04T20:49:25.786Z,13.57
2023-03-04T20:51:57.937Z,9.23
2023-03-04T20:54:26.889Z,14.10
2023-03-04T20:56:55.848Z,15.87
2023-03-04T20:59:24.843Z,14.27
2023-03-04T21:01:53.561Z,16.00
2023-03-04T21:04:23.411Z,23.90
2023-03-04T21:06:53.619Z,14.60
2023-03-04T21:09:24.391Z,11.50
2023-03-04T21:11:53.411Z,22.07
2023-03-04T21:14:23.694Z,16.30
2023-03-04T21:16:53.238Z,15.50
2023-03-04T21:19:23.129Z,19.87
2023-03-04T21:21:52.931Z,14.30
2023-03-04T21:24:24.359Z,20.50
2023-03-04T21:26:52.940Z,17.93
2023-03-04T21:29:23.067Z,10.87
2023-03-04T21:31:53.489Z,15.13
2023-03-04T21:34:24.248Z,11.03
2023-03-04T21:36:52.956Z,10.70
2023-03-04T21:39:25.568Z,15.23
2023-03-04T21:41:55.489Z,12.90
2023-03-04T21:44:38.628Z,8.90
2023-03-04T21:47:16.397Z,15.70
2023-03-04T21:49:45.884Z,12.30
2023-03-04T21:52:14.387Z,7.30
2023-03-04T21:54:45.313Z,11.83
2023-03-04T21:57:14.527Z,12.53
2023-03-04T21:59:43.031Z,16.40
2023-03-04T22:02:15.939Z,14.23
2023-03-04T22:04:44.607Z,10.83
2023-03-04T22:07:13.258Z,10.70
2023-03-04T22:09:41.802Z,12.57
2023-03-04T22:12:14.455Z,19.50
2023-03-04T22:14:42.970Z,17.67
2023-03-04T22:17:11.597Z,13.43
2023-03-04T22:19:40.145Z,9.83
2023-03-04T22:22:08.856Z,14.10
2023-03-04T22:24:37.488Z,11.33
2023-03-04T22:27:06.231Z,10.30
2023-03-04T22:29:36.140Z,12.43
2023-03-04T22:32:04.667Z,16.10
2023-03-04T22:34:33.159Z,16.20
2023-03-04T22:37:01.602Z,23.40
2023-03-04T22:39:30.205Z,19.43
2023-03-04T22:41:59.311Z,15.70
2023-03-04T22:44:28.099Z,9.77
2023-03-04T22:46:57.956Z,16.77
2023-03-04T22:49:26.396Z,12.97
2023-03-04T22:51:54.823Z,17.53
2023-03-04T22:54:23.326Z,23.47
2023-03-04T22:56:51.829Z,16.80
2023-03-04T22:59:20.556Z,19.07
2023-03-04T23:01:50.015Z,16.83
2023-03-04T23:04:20.061Z,13.60
2023-03-04T23:06:48.597Z,10.70
2023-03-04T23:09:16.984Z,22.07
2023-03-04T23:11:45.641Z,22.57
2023-03-04T23:14:15.210Z,12.50
2023-03-04T23:16:44.280Z,18.47
2023-03-04T23:19:17.516Z,15.30
2023-03-04T23:21:47.341Z,16.00
2023-03-04T23:24:15.974Z,17.20
2023-03-04T23:26:45.381Z,19.47
2023-03-04T23:29:15.582Z,19.13
2023-03-04T23:31:44.858Z,14.77
2023-03-04T23:34:13.634Z,17.77
2023-03-04T23:36:42.211Z,19.33
2023-03-04T23:39:14.053Z,12.00
2023-03-04T23:41:42.983Z,16.33
2023-03-04T23:44:12.586Z,12.60
2023-03-04T23:46:41.071Z,19.03
2023-03-04T23:49:10.116Z,21.70
2023-03-04T23:51:40.794Z,22.00
2023-03-04T23:54:09.584Z,12.20
2023-03-04T23:56:39.781Z,13.73
2023-03-04T23:59:08.718Z,10.70
